Latest Weather Observations for East Sale

IDV60801

Issued at 8:32 am EDT Wednesday 7 December 2016 (issued every 30 minutes, with the page automatically refreshed every 10 minutes)

About weather observations | Map of weather stations | Latest weather observations for VIC | Other Formats
Station Details ID: 085072 Name: EAST SALE AIRPORT Lat: -38.12 Lon: 147.13 Height: 4.6 m
Data from the previous 72 hours. | See also: Recent months at East Sale
Date/Time
EDT
Temp
°C
App
Temp
°C
Dew
Point
°C
Rel
Hum
%
Delta-T
°C
Wind Press
QNH
hPa
Press
MSL
hPa
Rain since
9am
mm
Dir  Spd
km/h
Gust
km/h
Spd
kts
Gust
kts
07/08:00am 12.8 10.9 8.9 77 2.0 WNW 9 13 5 7 1016.5 1016.5 0.0
07/07:30am 11.2 9.2 8.8 85 1.2 WNW 9 11 5 6 1016.4 1016.4 0.0
07/07:00am 9.6 7.9 8.2 91 0.7 NW 7 11 4 6 1016.2 1016.2 0.0
07/06:30am 8.3 5.9 7.2 93 0.5 WNW 9 11 5 6 1016.1 1016.1 0.0
07/06:00am 7.3 4.3 6.1 92 0.5 NW 11 13 6 7 1015.7 1015.7 0.0
07/05:30am 7.7 5.1 6.3 91 0.6 NNW 9 11 5 6 1015.6 1015.6 0.0
07/05:00am 7.7 5.1 6.2 90 0.7 NW 9 11 5 6 1015.1 1015.1 0.0
07/04:30am 7.8 4.5 6.3 90 0.7 WNW 13 13 7 7 1014.9 1014.9 0.0
07/04:00am 8.3 5.4 6.6 89 0.8 WNW 11 13 6 7 1014.8 1014.8 0.0
07/03:30am 8.5 5.6 6.5 87 0.9 NW 11 13 6 7 1014.8 1014.8 0.0
07/03:00am 9.2 6.8 7.0 86 1.0 WNW 9 11 5 6 1014.8 1014.8 0.0
07/02:30am 9.5 7.5 6.9 84 1.2 WNW 7 9 4 5 1015.0 1015.0 0.0
07/02:00am 9.1 6.6 6.5 84 1.2 WNW 9 11 5 6 1015.4 1015.4 0.0
07/01:30am 9.7 6.8 6.6 81 1.4 WNW 11 13 6 7 1015.7 1015.7 0.0
07/01:00am 10.5 7.7 7.0 79 1.7 WNW 11 13 6 7 1015.8 1015.8 0.0
07/12:30am 11.4 9.3 6.7 73 2.2 W 7 9 4 5 1015.8 1015.8 0.0
07/12:00am 13.2 11.1 6.5 64 3.2 SSW 7 9 4 5 1015.9 1015.9 0.0
 
Date/Time
EDT
Temp
°C
App
Temp
°C
Dew
Point
°C
Rel
Hum
%
Delta-T
°C
Wind Press
QNH
hPa
Press
MSL
hPa
Rain since
9am
mm
Dir  Spd
km/h
Gust
km/h
Spd
kts
Gust
kts
06/11:30pm 13.2 10.4 7.0 66 3.0 SSW 11 13 6 7 1016.0 1016.0 0.0
06/11:00pm 13.9 11.2 7.2 64 3.3 S 11 17 6 9 1015.9 1015.9 0.0
06/10:30pm 14.8 14.0 8.3 65 3.3 N 2 7 1 4 1015.7 1015.7 0.0
06/10:00pm 15.4 14.2 9.7 69 3.0 SSW 6 6 3 3 1015.3 1015.3 0.0
06/09:30pm 15.3 13.7 10.1 71 2.7 NNW 9 17 5 9 1014.7 1014.7 0.0
06/09:00pm 15.8 14.4 9.7 67 3.2 N 7 11 4 6 1014.7 1014.7 0.0
06/08:30pm 16.1 14.3 9.5 65 3.4 N 9 13 5 7 1014.5 1014.5 0.0
06/08:00pm 16.2 14.1 9.6 65 3.4 N 11 17 6 9 1013.9 1013.9 0.0
06/07:30pm 16.9 14.0 9.8 63 3.7 NNE 15 20 8 11 1013.3 1013.3 0.0
06/07:00pm 17.0 13.7 9.4 61 4.0 NE 17 24 9 13 1013.3 1013.3 0.0
06/06:30pm 18.0 14.9 8.8 55 4.8 NE 15 17 8 9 1013.3 1013.3 0.0
06/06:00pm 18.2 14.8 9.3 56 4.7 E 17 19 9 10 1012.9 1012.9 0.0
06/05:30pm 18.7 14.9 9.8 56 4.7 E 20 28 11 15 1012.5 1012.5 0.0
06/05:00pm 18.2 14.2 10.3 60 4.2 SE 22 32 12 17 1012.4 1012.4 0.0
06/04:30pm 19.0 15.5 10.8 59 4.4 SSE 20 30 11 16 1012.5 1012.5 0.0
06/04:00pm 18.0 14.0 10.6 62 4.0 SE 22 32 12 17 1012.5 1012.5 0.0
06/03:30pm 17.7 14.0 10.3 62 3.9 SE 20 30 11 16 1012.6 1012.6 0.0
06/03:00pm 18.7 14.6 11.5 63 3.9 SE 24 33 13 18 1012.4 1012.4 0.0
06/02:30pm 18.2 14.5 11.5 65 3.7 SE 22 30 12 16 1012.4 1012.4 0.0
06/02:00pm 20.3 16.9 11.2 56 5.0 W 20 32 11 17 1012.3 1012.3 0.0
06/01:30pm 19.5 16.5 10.5 56 4.9 WSW 17 28 9 15 1012.2 1012.2 0.0
06/01:00pm 19.4 16.2 11.4 60 4.4 WSW 19 24 10 13 1012.6 1012.6 0.0
06/12:30pm 18.3 16.4 10.4 60 4.2 WSW 11 15 6 8 1012.9 1012.9 0.0
06/12:00pm 17.8 16.6 11.6 67 3.4 WNW 9 15 5 8 1013.2 1013.2 0.0
06/11:30am 16.6 15.5 12.0 74 2.5 W 9 11 5 6 1013.6 1013.6 0.0
06/11:21am 16.7 15.8 12.5 76 2.3 W 9 15 5 8 1013.6 1013.6 0.0
06/11:11am 16.2 15.3 12.7 80 1.9 WSW 9 13 5 7 1013.7 1013.7 0.0
06/11:00am 15.5 14.2 12.4 82 1.7 W 11 15 6 8 1013.8 1013.8 0.0
06/10:30am 15.2 14.5 12.0 81 1.7 NNW 7 13 4 7 1013.9 1013.9 0.0
06/10:20am 15.2 14.4 11.8 80 1.8 NNW 7 11 4 6 1013.7 1013.7 0.0
06/10:00am 14.8 14.0 11.6 81 1.7 WNW 7 13 4 7 1013.9 1013.9 0.0
06/09:30am 14.7 13.5 11.5 81 1.7 W 9 13 5 7 1013.9 1013.9 0.0
06/09:20am 14.7 13.5 11.5 81 1.7 WSW 9 13 5 7 1014.0 1014.0 0.0
06/09:00am 14.8 13.9 11.4 80 1.8 WSW 7 11 4 6 1014.0 1014.0 0.0
06/08:57am 14.8 13.9 11.4 80 1.8 WSW 7 15 4 8 1014.0 1014.0 0.0
06/08:30am 14.2 12.3 11.7 85 1.3 SW 13 20 7 11 1014.2 1014.2 0.0
06/08:00am 14.5 11.5 10.7 78 2.0 SW 17 24 9 13 1014.1 1014.1 0.0
06/07:30am 14.4 11.8 10.6 78 2.0 SSW 15 19 8 10 1013.5 1013.5 0.0
06/07:00am 14.4 11.8 10.6 78 2.0 SSW 15 19 8 10 1013.0 1013.0 0.0
06/06:30am 14.2 12.3 10.6 79 1.9 SSW 11 15 6 8 1012.3 1012.3 0.0
06/06:00am 14.0 12.9 10.6 80 1.8 S 7 9 4 5 1011.8 1011.8 0.0
06/05:30am 13.9 12.4 10.7 81 1.7 SSE 9 11 5 6 1011.5 1011.5 0.0
06/05:00am 14.1 12.6 10.5 79 1.9 S 9 13 5 7 1011.6 1011.6 0.0
06/04:30am 14.2 12.1 11.0 81 1.7 S 13 17 7 9 1011.2 1011.2 0.0
06/04:00am 14.3 12.6 11.1 81 1.7 S 11 17 6 9 1011.0 1011.0 0.0
06/03:30am 14.3 12.5 10.9 80 1.8 S 11 15 6 8 1011.6 1011.6 0.0
06/03:00am 14.4 12.3 11.2 81 1.7 S 13 15 7 8 1012.0 1012.0 0.0
06/02:30am 14.6 13.3 11.4 81 1.7 SSE 9 15 5 8 1012.5 1012.5 0.0
06/02:00am 14.7 13.4 11.3 80 1.8 SSE 9 13 5 7 1012.9 1012.9 0.0
06/01:30am 14.9 13.7 11.7 81 1.7 SE 9 13 5 7 1013.2 1013.2 0.0
06/01:00am 14.8 13.5 12.5 86 1.3 ESE 11 13 6 7 1012.9 1012.9 0.0
06/12:30am 14.8 13.2 12.7 87 1.2 SE 13 17 7 9 1013.5 1013.5 0.0
06/12:00am 15.2 13.5 12.5 84 1.5 SE 13 19 7 10 1013.9 1013.9 0.0
 
Date/Time
EDT
Temp
°C
App
Temp
°C
Dew
Point
°C
Rel
Hum
%
Delta-T
°C
Wind Press
QNH
hPa
Press
MSL
hPa
Rain since
9am
mm
Dir  Spd
km/h
Gust
km/h
Spd
kts
Gust
kts
05/11:30pm 15.1 13.4 12.6 85 1.4 SE 13 17 7 9 1014.1 1014.1 0.0
05/11:00pm 15.3 13.3 11.5 78 2.0 ESE 13 17 7 9 1014.7 1014.7 0.0
05/10:30pm 15.6 13.4 10.8 73 2.5 ESE 13 15 7 8 1015.1 1015.1 0.0
05/10:00pm 15.8 13.9 10.6 71 2.8 SSE 11 15 6 8 1014.9 1014.9 0.0
05/09:30pm 16.1 13.9 10.8 71 2.8 SE 13 20 7 11 1013.9 1013.9 0.0
05/09:00pm 16.4 14.3 11.1 71 2.8 SE 13 19 7 10 1013.8 1013.8 0.0
05/08:30pm 16.9 14.8 11.0 68 3.2 SSE 13 20 7 11 1013.7 1013.7 0.0
05/08:00pm 17.4 15.9 10.5 64 3.7 E 9 13 5 7 1013.5 1013.5 0.0
05/07:30pm 18.2 16.6 11.7 66 3.6 NE 11 15 6 8 1013.4 1013.4 0.0
05/07:00pm 18.1 16.2 11.7 66 3.5 NE 13 15 7 8 1013.0 1013.0 0.0
05/06:30pm 18.0 15.2 11.3 65 3.6 E 17 20 9 11 1012.6 1012.6 0.0
05/06:00pm 18.9 16.8 11.2 61 4.2 E 13 17 7 9 1012.2 1012.2 0.0
05/05:30pm 19.0 15.6 11.3 61 4.2 E 20 24 11 13 1012.1 1012.1 0.0
05/05:00pm 19.4 17.6 12.2 63 4.0 WNW 13 20 7 11 1011.7 1011.7 0.0
05/04:30pm 20.1 17.9 12.1 60 4.5 W 15 20 8 11 1011.0 1011.0 0.0
05/04:00pm 20.2 17.5 11.7 58 4.7 WSW 17 24 9 13 1010.9 1010.9 0.0
05/03:30pm 20.4 16.6 12.4 60 4.5 W 24 33 13 18 1011.2 1011.2 0.0
05/03:00pm 20.0 15.3 12.0 60 4.5 W 28 39 15 21 1011.1 1011.1 0.0
05/02:30pm 20.6 16.0 12.3 59 4.7 WSW 28 37 15 20 1010.9 1010.9 0.0
05/02:00pm 20.2 15.5 11.9 59 4.6 WSW 28 39 15 21 1010.8 1010.8 0.0
05/01:30pm 20.5 16.0 12.5 60 4.5 W 28 37 15 20 1010.8 1010.8 0.0
05/01:00pm 20.7 16.2 12.7 60 4.5 W 28 35 15 19 1010.7 1010.7 0.0
05/12:30pm 20.1 17.3 13.1 64 4.0 WSW 20 32 11 17 1010.8 1010.8 0.0
05/12:00pm 20.7 17.7 13.6 64 4.1 W 22 32 12 17 1010.7 1010.7 0.0
05/11:30am 19.8 16.6 13.0 65 3.9 WSW 22 30 12 16 1010.5 1010.5 0.0
05/11:00am 19.3 14.9 12.8 66 3.7 WSW 28 35 15 19 1010.3 1010.3 0.0
05/10:30am 19.7 16.6 13.4 67 3.6 WSW 22 35 12 19 1010.1 1010.1 0.0
05/10:00am 19.6 17.1 14.0 70 3.2 WSW 20 28 11 15 1009.9 1009.9 0.0
05/09:30am 19.7 17.2 14.1 70 3.2 WSW 20 32 11 17 1009.4 1009.4 0.0
05/09:00am 19.8 17.5 14.2 70 3.2 SSW 19 30 10 16 1008.9 1008.9 0.4
05/08:30am 19.8 15.9 14.4 71 3.1 SSW 28 35 15 19 1008.3 1008.3 0.4
05/08:00am 19.8 16.1 16.1 79 2.2 SSW 30 39 16 21 1007.3 1007.3 0.4
05/07:30am 20.6 18.6 16.4 77 2.5 S 22 30 12 16 1006.4 1006.4 0.4
05/07:00am 23.3 23.3 17.3 69 3.7 SSW 13 19 7 10 1005.4 1005.4 0.4
05/06:30am 22.0 22.5 17.4 75 2.8 WSW 11 15 6 8 1005.0 1005.0 0.4
05/06:00am 23.0 23.9 16.5 67 4.0 W 7 9 4 5 1004.2 1004.2 0.4
05/05:30am 21.9 22.4 17.5 76 2.7 SW 11 17 6 9 1004.0 1004.0 0.4
05/05:00am 19.7 20.9 17.3 86 1.5 SSW 7 9 4 5 1003.7 1003.7 0.4
05/04:30am 20.1 21.5 17.3 84 1.7 SSE 6 7 3 4 1003.3 1003.3 0.4
05/04:00am 19.1 20.0 16.0 82 1.9 NE 6 7 3 4 1003.2 1003.2 0.4
05/03:30am 20.5 21.4 16.1 76 2.6 NNE 6 7 3 4 1003.2 1003.2 0.4
05/03:00am 20.8 21.7 16.6 77 2.6 NE 7 9 4 5 1003.4 1003.4 0.4
05/02:30am 20.9 21.5 16.9 78 2.4 NNE 9 11 5 6 1003.7 1003.7 0.4
05/02:00am 20.5 22.2 17.1 81 2.1 NNE 4 9 2 5 1004.3 1004.3 0.4
05/01:30am 20.4 21.4 17.8 85 1.6 ENE 9 11 5 6 1004.6 1004.6 0.4
05/01:00am 20.8 22.1 17.6 82 2.0 NNE 7 11 4 6 1005.2 1005.2 0.4
05/12:30am 21.1 21.5 17.3 79 2.3 N 11 15 6 8 1005.9 1005.9 0.4
05/12:00am 21.0 22.2 18.2 84 1.7 NE 9 11 5 6 1006.2 1006.2 0.4
 
Date/Time
EDT
Temp
°C
App
Temp
°C
Dew
Point
°C
Rel
Hum
%
Delta-T
°C
Wind Press
QNH
hPa
Press
MSL
hPa
Rain since
9am
mm
Dir  Spd
km/h
Gust
km/h
Spd
kts
Gust
kts
04/11:30pm 21.2 23.1 17.6 80 2.2 NNE 4 6 2 3 1006.5 1006.5 0.4
04/11:00pm 21.0 23.1 18.2 84 1.7 ESE 4 7 2 4 1007.0 1007.0 0.4
04/10:30pm 21.3 22.5 17.3 78 2.5 NNW 7 7 4 4 1007.3 1007.3 0.4
04/10:00pm 21.4 22.5 17.2 77 2.6 N 7 11 4 6 1007.1 1007.1 0.4
04/09:30pm 22.3 21.3 16.6 70 3.5 NW 17 20 9 11 1007.9 1007.9 0.2
04/09:00pm 21.9 21.0 16.8 73 3.1 WNW 17 20 9 11 1007.8 1007.8 0.0
04/08:30pm 22.7 21.1 17.4 72 3.3 NW 22 28 12 15 1008.3 1008.3 0.0
04/08:00pm 22.6 20.7 15.7 65 4.2 W 20 26 11 14 1007.4 1007.4 0.0
04/07:30pm 24.2 22.0 14.3 54 5.8 E 19 24 10 13 1005.7 1005.7 0.0
04/07:00pm 25.0 22.6 12.6 46 7.2 ESE 17 19 9 10 1005.6 1005.6 0.0
04/06:30pm 25.5 21.5 11.7 42 7.9 E 24 30 13 16 1005.3 1005.3 0.0
04/06:00pm 24.3 22.6 15.8 59 5.2 ESE 19 24 10 13 1005.7 1005.7 0.0
04/05:30pm 24.5 22.7 16.0 59 5.2 ESE 20 24 11 13 1006.1 1006.1 0.0
04/05:00pm 24.9 22.2 15.5 56 5.7 E 24 28 13 15 1006.4 1006.4 0.0
04/04:30pm 25.0 22.7 16.7 60 5.1 E 24 28 13 15 1006.8 1006.8 0.0
04/04:00pm 25.9 23.1 15.3 52 6.4 E 24 28 13 15 1007.3 1007.3 0.0
04/03:30pm 26.1 24.0 16.1 54 6.1 E 22 28 12 15 1007.7 1007.7 0.0
04/03:00pm 26.0 23.9 15.1 51 6.6 E 20 26 11 14 1007.9 1007.9 0.0
04/02:30pm 26.7 25.2 16.3 53 6.4 E 19 22 10 12 1008.3 1008.3 0.0
04/02:00pm 26.5 24.1 13.9 45 7.5 E 19 26 10 14 1008.5 1008.5 0.0
04/01:30pm 25.2 23.6 14.9 52 6.2 E 17 24 9 13 1008.9 1008.9 0.0
04/01:00pm 25.0 23.1 14.2 51 6.4 ENE 17 22 9 12 1009.3 1009.3 0.0
04/12:30pm 24.2 24.9 17.0 64 4.4 E 9 17 5 9 1010.0 1010.0 0.0
04/12:00pm 22.2 22.5 15.1 64 4.2 E 7 15 4 8 1010.3 1010.3 0.0
04/11:30am 21.3 21.4 15.4 69 3.5 E 9 13 5 7 1010.7 1010.7 0.0
04/11:00am 20.3 20.9 15.3 73 3.0 ENE 6 11 3 6 1011.1 1011.1 0.0
04/10:30am 20.0 19.8 13.7 67 3.6 ENE 7 11 4 6 1011.6 1011.6 0.0
04/10:00am 18.5 18.3 13.1 71 3.0 NE 6 11 3 6 1012.0 1012.0 0.0
04/09:30am 17.9 17.6 13.4 75 2.5 NE 7 11 4 6 1012.2 1012.2 0.0
04/09:00am 16.2 16.3 12.6 79 2.0 NNE 4 9 2 5 1012.4 1012.4 0.0

Other Formats:

Comma delimited format used in spreadsheet applications
http://www.bom.gov.au/fwo/IDV60801/IDV60801.94907.axf

JavaScript Object Notation format (JSON) in row-major order
http://www.bom.gov.au/fwo/IDV60801/IDV60801.94907.json